McAdoo, Texas
Current Conditions -  °F | °C
As of 8:53 PM on Tuesday 21 Oct 2014 (Local Time) from KLBB Reporting Station
Overcast Overcast  
Wind Chill: 20°   Ceiling: 7000
Heat Index: 20°   Visibility: 10mi
Dew Point: 11°   Wind: 9mph
Humidity: 56%   Direction: 160°SSE
Pressure: 30.07"   Gusts: NA
Location:  33.73°N, 101.01°W
Report Text: KLBB 220153Z 16008KT 10SM OVC070 20/11 A3007 RMK AO2 SLP153 BINOVC T02000111
Loading
Personal Weather Stations






























Interactive Weather Map
Tropical Storm Tracking
New forecast layout! Learn more

10-Day Weather Forecast

Advertisements
Track Severe Weather on mobile